createdAt,value
2023-02-26T00:01:19.833Z,102068.19
2023-02-26T00:03:55.560Z,102073.19
2023-02-26T00:06:24.270Z,102070.28
2023-02-26T00:08:51.687Z,102076.44
2023-02-26T00:11:19.089Z,102076.00
2023-02-26T00:13:46.525Z,102080.59
2023-02-26T00:16:34.239Z,102087.94
2023-02-26T00:19:04.619Z,102090.97
2023-02-26T00:21:32.316Z,102092.75
2023-02-26T00:24:00.572Z,102088.56
2023-02-26T00:26:29.367Z,102088.56
2023-02-26T00:28:56.892Z,102102.28
2023-02-26T00:31:25.215Z,102096.78
2023-02-26T00:33:56.621Z,102099.53
2023-02-26T00:36:47.553Z,102112.91
2023-02-26T00:39:41.066Z,102110.63
2023-02-26T00:42:08.607Z,102114.53
2023-02-26T00:44:36.042Z,102117.72
2023-02-26T00:47:26.675Z,102123.19
2023-02-26T00:50:05.999Z,102112.03
2023-02-26T00:52:41.990Z,102125.16
2023-02-26T00:55:09.241Z,102120.63
2023-02-26T00:57:37.437Z,102135.81
2023-02-26T01:00:08.166Z,102132.91
2023-02-26T01:02:36.333Z,102134.78
2023-02-26T01:05:04.525Z,102131.50
2023-02-26T01:07:47.591Z,102136.34
2023-02-26T01:10:15.342Z,102135.09
2023-02-26T01:12:42.719Z,102146.06
2023-02-26T01:15:10.526Z,102149.22
2023-02-26T01:17:59.870Z,102151.16
2023-02-26T01:20:37.721Z,102150.84
2023-02-26T01:23:09.514Z,102159.56
2023-02-26T01:25:58.139Z,102167.06
2023-02-26T01:28:26.291Z,102157.09
2023-02-26T01:30:55.152Z,102164.88
2023-02-26T01:33:29.711Z,102166.78
2023-02-26T01:36:17.308Z,102177.53
2023-02-26T01:38:49.969Z,102175.38
2023-02-26T01:41:25.120Z,102172.88
2023-02-26T01:44:00.473Z,102172.34
2023-02-26T01:46:39.507Z,102169.38
2023-02-26T01:49:13.628Z,102175.09
2023-02-26T01:52:04.947Z,102175.72
2023-02-26T01:54:39.114Z,102192.81
2023-02-26T01:57:12.267Z,102192.34
2023-02-26T01:59:47.851Z,102187.34
2023-02-26T02:02:18.821Z,102195.66
2023-02-26T02:04:47.543Z,102198.94
2023-02-26T02:07:14.765Z,102196.75
2023-02-26T02:09:42.964Z,102202.56
2023-02-26T02:12:28.486Z,102206.75
2023-02-26T02:15:17.232Z,102201.78
2023-02-26T02:18:05.212Z,102206.66
2023-02-26T02:20:47.846Z,102213.03
2023-02-26T02:23:28.809Z,102215.53
2023-02-26T02:26:02.116Z,102218.28
2023-02-26T02:28:59.147Z,102233.19
2023-02-26T02:31:29.164Z,102229.63
2023-02-26T02:34:04.279Z,102228.50
2023-02-26T02:36:45.857Z,102227.06
2023-02-26T02:39:42.756Z,102222.91
2023-02-26T02:42:21.864Z,102235.88
2023-02-26T02:44:57.277Z,102241.66
2023-02-26T02:47:25.937Z,102238.97
2023-02-26T02:50:14.854Z,102232.88
2023-02-26T02:52:41.838Z,102239.50
2023-02-26T02:55:16.669Z,102241.19
2023-02-26T02:57:59.685Z,102245.03
2023-02-26T03:00:29.009Z,102242.28
2023-02-26T03:03:14.261Z,102246.13
2023-02-26T03:05:41.443Z,102243.97
2023-02-26T03:08:16.599Z,102247.81
2023-02-26T03:10:46.468Z,102260.47
2023-02-26T03:13:19.128Z,102263.25
2023-02-26T03:16:13.761Z,102255.00
2023-02-26T03:19:18.314Z,102258.28
2023-02-26T03:21:50.653Z,102253.09
2023-02-26T03:24:55.234Z,102253.88
2023-02-26T03:27:45.046Z,102259.41
2023-02-26T03:30:23.531Z,102255.00
2023-02-26T03:32:59.554Z,102260.22
2023-02-26T03:35:32.853Z,102261.59
2023-02-26T03:38:03.504Z,102271.75
2023-02-26T03:40:38.407Z,102273.97
2023-02-26T03:43:23.616Z,102276.75
2023-02-26T03:45:54.456Z,102278.94
2023-02-26T03:48:23.647Z,102280.84
2023-02-26T03:50:54.208Z,102277.03
2023-02-26T03:53:47.245Z,102281.72
2023-02-26T03:56:30.123Z,102296.03
2023-02-26T03:59:20.529Z,102298.50
2023-02-26T04:02:28.941Z,102305.13
2023-02-26T04:05:09.118Z,102305.13
2023-02-26T04:07:36.396Z,102305.66
2023-02-26T04:10:04.129Z,102309.25
2023-02-26T04:12:32.785Z,102316.16
2023-02-26T04:14:59.783Z,102311.22
2023-02-26T04:17:27.091Z,102303.75
2023-02-26T04:19:54.933Z,102313.13
2023-02-26T04:22:22.687Z,102311.75
2023-02-26T04:24:49.656Z,102328.53
2023-02-26T04:27:18.046Z,102329.34
2023-02-26T04:29:45.404Z,102334.84
2023-02-26T04:32:12.762Z,102328.25
2023-02-26T04:34:40.054Z,102348.38
2023-02-26T04:37:07.735Z,102350.28
2023-02-26T04:39:34.865Z,102339.28
2023-02-26T04:42:01.871Z,102353.56
2023-02-26T04:44:28.994Z,102354.13
2023-02-26T04:46:55.952Z,102351.38
2023-02-26T04:49:23.671Z,102348.09
2023-02-26T04:51:50.681Z,102360.47
2023-02-26T04:54:17.786Z,102359.34
2023-02-26T04:56:44.654Z,102359.63
2023-02-26T04:59:11.645Z,102362.94
2023-02-26T05:01:38.537Z,102366.53
2023-02-26T05:04:07.928Z,102361.84
2023-02-26T05:06:35.087Z,102368.44
2023-02-26T05:09:01.782Z,102375.59
2023-02-26T05:11:28.526Z,102381.66
2023-02-26T05:13:55.393Z,102388.81
2023-02-26T05:16:22.136Z,102384.69
2023-02-26T05:18:48.956Z,102386.59
2023-02-26T05:21:15.608Z,102386.63
2023-02-26T05:23:42.646Z,102386.31
2023-02-26T05:26:09.539Z,102388.00
2023-02-26T05:28:36.869Z,102397.88
2023-02-26T05:31:03.975Z,102396.22
2023-02-26T05:33:31.065Z,102391.84
2023-02-26T05:35:57.967Z,102403.97
2023-02-26T05:38:24.805Z,102395.41
2023-02-26T05:40:51.682Z,102386.06
2023-02-26T05:43:18.357Z,102395.97
2023-02-26T05:45:45.019Z,102397.91
2023-02-26T05:48:11.807Z,102396.25
2023-02-26T05:50:38.556Z,102389.38
2023-02-26T05:53:05.091Z,102402.06
2023-02-26T05:55:31.954Z,102406.44
2023-02-26T05:57:58.629Z,102414.44
2023-02-26T06:00:25.642Z,102425.16
2023-02-26T06:02:52.345Z,102437.56
2023-02-26T06:05:19.137Z,102442.53
2023-02-26T06:07:47.459Z,102441.97
2023-02-26T06:10:14.460Z,102448.56
2023-02-26T06:12:41.179Z,102445.53
2023-02-26T06:15:09.057Z,102450.78
2023-02-26T06:17:36.012Z,102456.00
2023-02-26T06:20:03.633Z,102461.25
2023-02-26T06:22:30.701Z,102466.22
2023-02-26T06:24:57.588Z,102468.38
2023-02-26T06:27:24.946Z,102470.59
2023-02-26T06:29:52.255Z,102470.88
2023-02-26T06:32:19.218Z,102480.78
2023-02-26T06:34:46.143Z,102474.72
2023-02-26T06:37:13.109Z,102486.56
2023-02-26T06:39:39.962Z,102489.63
2023-02-26T06:42:06.736Z,102495.13
2023-02-26T06:44:33.604Z,102507.78
2023-02-26T06:47:00.452Z,102503.63
2023-02-26T06:49:27.517Z,102509.44
2023-02-26T06:51:54.531Z,102506.41
2023-02-26T06:54:21.442Z,102510.00
2023-02-26T06:56:48.241Z,102520.22
2023-02-26T06:59:15.517Z,102524.63
2023-02-26T07:01:42.456Z,102522.69
2023-02-26T07:04:09.371Z,102534.53
2023-02-26T07:06:36.161Z,102542.81
2023-02-26T07:09:02.760Z,102544.47
2023-02-26T07:11:29.661Z,102551.63
2023-02-26T07:13:56.415Z,102547.78
2023-02-26T07:16:23.343Z,102544.75
2023-02-26T07:18:50.160Z,102554.66
2023-02-26T07:21:16.917Z,102563.19
2023-02-26T07:23:43.605Z,102556.28
2023-02-26T07:26:10.391Z,102566.75
2023-02-26T07:28:37.040Z,102550.75
2023-02-26T07:31:04.423Z,102566.72
2023-02-26T07:33:31.983Z,102563.38
2023-02-26T07:35:58.697Z,102566.97
2023-02-26T07:38:25.473Z,102572.22
2023-02-26T07:40:55.587Z,102567.34
2023-02-26T07:43:23.936Z,102568.84
2023-02-26T07:45:51.718Z,102576.34
2023-02-26T07:48:18.880Z,102577.19
2023-02-26T07:50:45.721Z,102581.63
2023-02-26T07:53:12.653Z,102580.00
2023-02-26T07:55:39.489Z,102590.19
2023-02-26T07:58:06.412Z,102595.16
2023-02-26T08:00:33.322Z,102595.72
2023-02-26T08:03:00.203Z,102603.47
2023-02-26T08:05:29.871Z,102606.22
2023-02-26T08:07:57.003Z,102602.03
2023-02-26T08:10:23.717Z,102596.00
2023-02-26T08:12:50.574Z,102604.81
2023-02-26T08:15:17.257Z,102594.91
2023-02-26T08:17:44.001Z,102602.53
2023-02-26T08:20:12.030Z,102612.19
2023-02-26T08:22:38.825Z,102609.31
2023-02-26T08:25:05.990Z,102620.94
2023-02-26T08:27:32.858Z,102626.75
2023-02-26T08:29:59.772Z,102629.56
2023-02-26T08:32:28.261Z,102632.22
2023-02-26T08:34:55.712Z,102622.97
2023-02-26T08:37:25.419Z,102635.28
2023-02-26T08:39:52.627Z,102633.63
2023-02-26T08:42:20.694Z,102643.63
2023-02-26T08:44:47.949Z,102637.00
2023-02-26T08:47:17.130Z,102655.06
2023-02-26T08:49:51.468Z,102651.00
2023-02-26T08:52:18.410Z,102662.09
2023-02-26T08:54:45.225Z,102657.66
2023-02-26T08:57:12.166Z,102665.66
2023-02-26T08:59:38.955Z,102659.88
2023-02-26T09:02:05.652Z,102669.91
2023-02-26T09:04:32.455Z,102668.66
2023-02-26T09:06:59.197Z,102675.47
2023-02-26T09:09:25.996Z,102673.78
2023-02-26T09:11:52.742Z,102696.53
2023-02-26T09:14:19.687Z,102693.91
2023-02-26T09:16:46.555Z,102696.09
2023-02-26T09:19:13.497Z,102689.66
2023-02-26T09:21:40.159Z,102697.59
2023-02-26T09:24:07.341Z,102702.38
2023-02-26T09:26:34.057Z,102708.97
2023-02-26T09:29:00.935Z,102710.78
2023-02-26T09:31:28.391Z,102712.09
2023-02-26T09:33:55.191Z,102720.84
2023-02-26T09:36:22.235Z,102709.47
2023-02-26T09:38:49.081Z,102722.34
2023-02-26T09:41:34.730Z,102729.00
2023-02-26T09:44:17.815Z,102738.53
2023-02-26T09:46:55.338Z,102728.44
2023-02-26T09:49:34.190Z,102728.81
2023-02-26T09:52:31.627Z,102735.69
2023-02-26T09:55:01.920Z,102740.56
2023-02-26T09:57:37.197Z,102736.19
2023-02-26T10:00:24.624Z,102742.09
2023-02-26T10:03:03.222Z,102738.06
2023-02-26T10:05:41.164Z,102745.03
2023-02-26T10:08:16.597Z,102744.47
2023-02-26T10:11:04.264Z,102745.13
2023-02-26T10:13:57.868Z,102756.56
2023-02-26T10:16:32.738Z,102750.72
2023-02-26T10:19:08.428Z,102752.47
2023-02-26T10:21:42.835Z,102758.56
2023-02-26T10:24:23.235Z,102753.72
2023-02-26T10:27:01.891Z,102770.34
2023-02-26T10:29:34.455Z,102762.84
2023-02-26T10:32:20.138Z,102769.09
2023-02-26T10:34:58.576Z,102771.34
2023-02-26T10:37:50.175Z,102774.91
2023-02-26T10:40:35.188Z,102779.88
2023-02-26T10:43:16.511Z,102778.84
2023-02-26T10:46:12.821Z,102784.81
2023-02-26T10:49:07.374Z,102787.63
2023-02-26T10:51:38.668Z,102784.25
2023-02-26T10:54:34.402Z,102790.44
2023-02-26T10:57:01.761Z,102784.84
2023-02-26T10:59:28.579Z,102792.22
2023-02-26T11:01:55.679Z,102786.97
2023-02-26T11:04:24.698Z,102802.34
2023-02-26T11:07:03.034Z,102797.00
2023-02-26T11:09:36.936Z,102798.06
2023-02-26T11:12:13.073Z,102802.94
2023-02-26T11:14:42.503Z,102797.56
2023-02-26T11:17:19.853Z,102803.38
2023-02-26T11:19:53.056Z,102807.66
2023-02-26T11:22:21.864Z,102810.13
2023-02-26T11:24:50.239Z,102805.31
2023-02-26T11:27:21.677Z,102798.03
2023-02-26T11:29:55.287Z,102799.34
2023-02-26T11:32:29.364Z,102785.84
2023-02-26T11:34:56.423Z,102792.38
2023-02-26T11:37:25.324Z,102788.25
2023-02-26T11:39:59.845Z,102811.38
2023-02-26T11:42:28.013Z,102814.00
2023-02-26T11:44:55.828Z,102817.41
2023-02-26T11:47:29.713Z,102804.53
2023-02-26T11:50:04.728Z,102804.19
2023-02-26T11:52:43.554Z,102805.47
2023-02-26T11:55:22.527Z,102799.91
2023-02-26T11:57:54.907Z,102806.41
2023-02-26T12:00:33.900Z,102799.63
2023-02-26T12:03:11.230Z,102804.16
2023-02-26T12:05:39.014Z,102793.47
2023-02-26T12:08:21.379Z,102802.25
2023-02-26T12:11:00.602Z,102800.72
2023-02-26T12:13:27.464Z,102803.97
2023-02-26T12:16:04.385Z,102795.25
2023-02-26T12:18:44.582Z,102808.25
2023-02-26T12:21:25.473Z,102795.41
2023-02-26T12:24:01.326Z,102803.16
2023-02-26T12:26:31.095Z,102800.75
2023-02-26T12:29:27.585Z,102797.59
2023-02-26T12:32:32.359Z,102787.81
2023-02-26T12:35:31.182Z,102800.75
2023-02-26T12:38:21.709Z,102793.28
2023-02-26T12:41:10.142Z,102792.91
2023-02-26T12:43:44.617Z,102797.94
2023-02-26T12:46:29.833Z,102793.22
2023-02-26T12:49:04.506Z,102795.03
2023-02-26T12:51:47.299Z,102788.78
2023-02-26T12:54:47.758Z,102790.31
2023-02-26T12:57:52.385Z,102783.94
2023-02-26T13:00:46.472Z,102779.53
2023-02-26T13:03:27.283Z,102777.28
2023-02-26T13:06:16.498Z,102782.72
2023-02-26T13:09:01.206Z,102778.38
2023-02-26T13:11:37.078Z,102788.66
2023-02-26T13:14:28.653Z,102788.91
2023-02-26T13:17:07.721Z,102773.56
2023-02-26T13:19:51.555Z,102785.94
2023-02-26T13:22:26.491Z,102774.31
2023-02-26T13:25:03.702Z,102775.97
2023-02-26T13:27:38.442Z,102778.50
2023-02-26T13:30:26.268Z,102780.19
2023-02-26T13:32:56.581Z,102779.72
2023-02-26T13:35:30.131Z,102779.22
2023-02-26T13:37:58.974Z,102792.75
2023-02-26T13:40:52.056Z,102777.81
2023-02-26T13:43:28.185Z,102779.47
2023-02-26T13:46:14.032Z,102771.72
2023-02-26T13:48:50.114Z,102767.66
2023-02-26T13:51:37.187Z,102765.00
2023-02-26T13:54:09.093Z,102772.59
2023-02-26T13:56:36.186Z,102771.16
2023-02-26T13:59:03.204Z,102765.66
2023-02-26T14:01:35.429Z,102777.97
2023-02-26T14:04:22.731Z,102766.09
2023-02-26T14:06:59.379Z,102766.00
2023-02-26T14:09:29.259Z,102771.22
2023-02-26T14:11:55.960Z,102768.41
2023-02-26T14:14:22.720Z,102774.69
2023-02-26T14:16:55.780Z,102764.47
2023-02-26T14:19:33.519Z,102770.53
2023-02-26T14:22:30.311Z,102788.38
2023-02-26T14:25:22.839Z,102791.28
2023-02-26T14:27:50.132Z,102784.31
2023-02-26T14:30:29.804Z,102793.81
2023-02-26T14:33:06.088Z,102785.28
2023-02-26T14:35:36.076Z,102795.78
2023-02-26T14:38:11.206Z,102792.03
2023-02-26T14:41:09.963Z,102804.16
2023-02-26T14:43:53.967Z,102793.56
2023-02-26T14:46:21.206Z,102801.25
2023-02-26T14:48:48.759Z,102789.06
2023-02-26T14:51:25.491Z,102788.69
2023-02-26T14:54:05.629Z,102782.56
2023-02-26T14:56:47.629Z,102797.63
2023-02-26T14:59:39.996Z,102787.97
2023-02-26T15:02:33.041Z,102791.78
2023-02-26T15:05:22.616Z,102795.13
2023-02-26T15:08:14.134Z,102796.84
2023-02-26T15:11:18.485Z,102789.53
2023-02-26T15:14:16.427Z,102786.09
2023-02-26T15:17:04.918Z,102791.81
2023-02-26T15:19:40.862Z,102788.59
2023-02-26T15:22:28.918Z,102791.56
2023-02-26T15:24:55.869Z,102810.13
2023-02-26T15:27:23.001Z,102797.81
2023-02-26T15:29:53.109Z,102812.75
2023-02-26T15:32:27.608Z,102801.16
2023-02-26T15:35:11.338Z,102813.09
2023-02-26T15:37:39.128Z,102818.97
2023-02-26T15:40:06.991Z,102806.97
2023-02-26T15:42:41.284Z,102813.06
2023-02-26T15:45:16.713Z,102816.88
2023-02-26T15:47:43.804Z,102812.66
2023-02-26T15:50:16.391Z,102814.59
2023-02-26T15:52:43.493Z,102818.13
2023-02-26T15:55:15.198Z,102818.66
2023-02-26T15:57:42.306Z,102817.06
2023-02-26T16:00:16.703Z,102825.16
2023-02-26T16:02:45.823Z,102819.13
2023-02-26T16:05:14.913Z,102826.91
2023-02-26T16:07:42.210Z,102828.06
2023-02-26T16:10:28.462Z,102836.34
2023-02-26T16:12:55.873Z,102824.09
2023-02-26T16:15:32.139Z,102823.84
2023-02-26T16:18:01.083Z,102826.25
2023-02-26T16:20:30.361Z,102820.72
2023-02-26T16:23:00.944Z,102824.03
2023-02-26T16:25:32.827Z,102817.50
2023-02-26T16:28:24.440Z,102823.09
2023-02-26T16:30:54.446Z,102829.97
2023-02-26T16:33:23.502Z,102834.88
2023-02-26T16:35:56.954Z,102828.00
2023-02-26T16:38:34.344Z,102835.16
2023-02-26T16:41:07.157Z,102827.72
2023-02-26T16:43:50.150Z,102839.72
2023-02-26T16:46:34.475Z,102831.66
2023-02-26T16:49:03.375Z,102841.09
2023-02-26T16:51:32.658Z,102854.72
2023-02-26T16:54:03.323Z,102847.06
2023-02-26T16:56:33.556Z,102857.31
2023-02-26T16:59:07.572Z,102859.59
2023-02-26T17:02:00.272Z,102866.19
2023-02-26T17:04:32.133Z,102860.44
2023-02-26T17:06:59.762Z,102859.53
2023-02-26T17:09:43.281Z,102872.00
2023-02-26T17:12:22.706Z,102875.34
2023-02-26T17:14:57.132Z,102880.56
2023-02-26T17:17:27.828Z,102887.78
2023-02-26T17:19:55.338Z,102894.47
2023-02-26T17:22:28.310Z,102894.25
2023-02-26T17:24:56.030Z,102896.22
2023-02-26T17:27:32.796Z,102892.03
2023-02-26T17:30:01.111Z,102891.25
2023-02-26T17:32:28.672Z,102905.63
2023-02-26T17:34:56.354Z,102892.88
2023-02-26T17:37:25.780Z,102898.47
2023-02-26T17:39:52.889Z,102907.00
2023-02-26T17:42:21.990Z,102910.41
2023-02-26T17:44:50.379Z,102907.66
2023-02-26T17:47:23.803Z,102907.38
2023-02-26T17:49:51.004Z,102917.31
2023-02-26T17:52:17.971Z,102906.53
2023-02-26T17:54:45.444Z,102905.16
2023-02-26T17:57:17.526Z,102915.13
2023-02-26T17:59:44.850Z,102905.16
2023-02-26T18:02:22.259Z,102908.22
2023-02-26T18:04:49.759Z,102917.88
2023-02-26T18:07:17.640Z,102923.97
2023-02-26T18:09:45.973Z,102931.97
2023-02-26T18:12:18.233Z,102927.53
2023-02-26T18:14:46.185Z,102936.38
2023-02-26T18:17:24.690Z,102928.34
2023-02-26T18:19:51.955Z,102933.06
2023-02-26T18:22:23.956Z,102947.16
2023-02-26T18:24:51.284Z,102940.25
2023-02-26T18:27:20.806Z,102941.88
2023-02-26T18:29:48.032Z,102937.47
2023-02-26T18:32:17.747Z,102938.03
2023-02-26T18:34:44.899Z,102945.75
2023-02-26T18:37:14.547Z,102946.84
2023-02-26T18:39:42.222Z,102943.78
2023-02-26T18:42:26.643Z,102943.53
2023-02-26T18:44:54.960Z,102943.25
2023-02-26T18:47:23.002Z,102946.59
2023-02-26T18:49:51.061Z,102952.13
2023-02-26T18:52:18.588Z,102951.28
2023-02-26T18:54:45.658Z,102946.84
2023-02-26T18:57:12.740Z,102952.38
2023-02-26T18:59:40.543Z,102954.06
2023-02-26T19:02:10.998Z,102951.03
2023-02-26T19:04:38.099Z,102952.69
2023-02-26T19:07:04.931Z,102949.91
2023-02-26T19:09:31.930Z,102945.22
2023-02-26T19:11:59.133Z,102943.00
2023-02-26T19:14:26.526Z,102943.56
2023-02-26T19:16:55.170Z,102951.31
2023-02-26T19:19:22.441Z,102948.00
2023-02-26T19:21:49.842Z,102953.25
2023-02-26T19:24:17.525Z,102954.34
2023-02-26T19:26:44.628Z,102954.59
2023-02-26T19:29:15.862Z,102952.69
2023-02-26T19:31:45.464Z,102955.72
2023-02-26T19:34:13.264Z,102954.06
2023-02-26T19:36:42.995Z,102952.69
2023-02-26T19:39:12.140Z,102956.53
2023-02-26T19:41:38.975Z,102957.66
2023-02-26T19:44:06.028Z,102955.97
2023-02-26T19:46:33.268Z,102958.75
2023-02-26T19:49:00.433Z,102964.56
2023-02-26T19:51:28.342Z,102957.34
2023-02-26T19:53:55.545Z,102953.19
2023-02-26T19:56:22.576Z,102958.41
2023-02-26T19:58:50.219Z,102960.31
2023-02-26T20:01:17.185Z,102961.69
2023-02-26T20:03:45.578Z,102963.41
2023-02-26T20:06:14.235Z,102964.47
2023-02-26T20:08:42.057Z,102962.84
2023-02-26T20:11:09.594Z,102974.22
2023-02-26T20:13:37.390Z,102969.25
2023-02-26T20:16:07.022Z,102970.91
2023-02-26T20:18:35.459Z,102972.56
2023-02-26T20:21:05.767Z,102967.31
2023-02-26T20:23:34.945Z,102973.09
2023-02-26T20:26:02.708Z,102983.06
2023-02-26T20:28:29.772Z,102981.41
2023-02-26T20:30:57.272Z,102986.38
2023-02-26T20:33:25.339Z,102990.53
2023-02-26T20:35:54.401Z,102982.75
2023-02-26T20:38:21.912Z,102985.00
2023-02-26T20:40:49.783Z,102989.13
2023-02-26T20:43:16.976Z,102986.94
2023-02-26T20:45:44.281Z,103000.75
2023-02-26T20:48:11.822Z,102999.09
2023-02-26T20:50:39.544Z,102997.72
2023-02-26T20:53:07.960Z,102991.38
2023-02-26T20:55:35.414Z,103004.63
2023-02-26T20:58:03.377Z,103004.09
2023-02-26T21:00:31.757Z,103006.56
2023-02-26T21:02:59.029Z,103003.78
2023-02-26T21:05:26.223Z,103002.13
2023-02-26T21:07:53.491Z,103005.47
2023-02-26T21:10:20.841Z,103012.09
2023-02-26T21:12:48.081Z,103016.53
2023-02-26T21:15:15.784Z,103010.16
2023-02-26T21:17:43.822Z,103016.53
2023-02-26T21:20:13.232Z,103001.03
2023-02-26T21:22:41.203Z,103010.41
2023-02-26T21:25:10.093Z,103019.53
2023-02-26T21:27:38.145Z,103020.13
2023-02-26T21:30:07.843Z,103024.28
2023-02-26T21:32:35.314Z,103026.47
2023-02-26T21:35:02.705Z,103029.22
2023-02-26T21:37:29.978Z,103034.50
2023-02-26T21:39:57.205Z,103024.28
2023-02-26T21:42:25.906Z,103036.19
2023-02-26T21:44:53.074Z,103031.75
2023-02-26T21:47:20.710Z,103032.28
2023-02-26T21:49:49.033Z,103036.13
2023-02-26T21:52:16.513Z,103029.53
2023-02-26T21:54:45.371Z,103040.03
2023-02-26T21:57:12.571Z,103037.81
2023-02-26T21:59:39.412Z,103041.41
2023-02-26T22:02:07.115Z,103047.22
2023-02-26T22:04:34.411Z,103036.41
2023-02-26T22:07:01.864Z,103032.59
2023-02-26T22:09:29.095Z,103031.44
2023-02-26T22:11:56.397Z,103032.56
2023-02-26T22:14:23.360Z,103036.97
2023-02-26T22:16:50.433Z,103036.72
2023-02-26T22:19:17.854Z,103038.34
2023-02-26T22:21:45.142Z,103041.94
2023-02-26T22:24:12.306Z,103038.63
2023-02-26T22:26:39.648Z,103040.56
2023-02-26T22:29:06.659Z,103045.00
2023-02-26T22:31:34.092Z,103030.91
2023-02-26T22:34:01.552Z,103038.63
2023-02-26T22:36:31.487Z,103039.19
2023-02-26T22:38:58.737Z,103040.88
2023-02-26T22:41:26.006Z,103039.72
2023-02-26T22:43:53.999Z,103043.63
2023-02-26T22:46:23.367Z,103044.72
2023-02-26T22:48:50.424Z,103040.81
2023-02-26T22:51:17.566Z,103043.88
2023-02-26T22:53:44.500Z,103040.59
2023-02-26T22:56:12.105Z,103048.31
2023-02-26T22:58:38.984Z,103048.31
2023-02-26T23:01:07.361Z,103045.81
2023-02-26T23:03:34.660Z,103048.56
2023-02-26T23:06:01.697Z,103056.31
2023-02-26T23:08:29.171Z,103048.88
2023-02-26T23:11:00.835Z,103052.16
2023-02-26T23:13:31.079Z,103054.38
2023-02-26T23:15:58.511Z,103052.16
2023-02-26T23:18:25.862Z,103059.09
2023-02-26T23:20:53.670Z,103061.84
2023-02-26T23:23:20.817Z,103058.00
2023-02-26T23:25:47.886Z,103058.81
2023-02-26T23:28:14.987Z,103056.63
2023-02-26T23:30:42.028Z,103057.66
2023-02-26T23:33:10.489Z,103060.94
2023-02-26T23:35:37.406Z,103054.03
2023-02-26T23:38:05.277Z,103048.72
2023-02-26T23:40:33.306Z,103055.34
2023-02-26T23:43:00.304Z,103055.56
2023-02-26T23:45:27.443Z,103056.09
2023-02-26T23:47:54.752Z,103049.97
2023-02-26T23:50:22.013Z,103054.63
2023-02-26T23:52:49.282Z,103058.19
2023-02-26T23:55:16.373Z,103061.97
2023-02-26T23:57:44.269Z,103070.00
